• Join FlightAware (Why Join?)
  • Login
  • US Flag 
12:50PM EDT


 

Airport Tracker/Info


-or-


 

Live Flight TrackerFlight Track Log ✈ UAL4236 ✈ 05-May-2013 ✈ KSDF - KIAH

Flight Track Log - Related Links

Times and Time Zones

All times are in EDT time to prevent confusion due to time zone crossing. See the UAL4236 flight status page for this flight to view local times or setup timezone preferences in your user account.

Time Position Orientation Groundspeed Altitude Reporting Facility
EDT Latitude Longitude Course Direction KTS MPH feet Rate Location/Type
06:18PM 38.0833 -85.7500 262° West 253 291 3,300  Level Louisville TRACON
06:19PM 38.0761 -85.8219 263° West 272 313 5,100 2,040 Climbing Indianapolis Center
06:20PM 38.0984 -86.0683 218° Southwest  Level FlightAware Approximate
06:20PM 38.0733 -85.9214 268° West 279 321 7,300  Level Indianapolis Center
06:21PM 38.0562 -86.1837 261° West  Level FlightAware Approximate
06:21PM 38.0667 -86.0425 266° West 285 328 9,900  Level Indianapolis Center
06:22PM 38.0429 -86.3184 262° West  Level FlightAware Approximate
06:22PM 38.0600 -86.1519 266° West 304 350 10,700  Level Indianapolis Center
06:23PM 38.0293 -86.4481 262° West  Level FlightAware Approximate
06:23PM 38.0408 -86.2714 259° West 342 394 12,300  Level Indianapolis Center
06:24PM 37.9769 -86.3636 229° Southwest 343 395 13,700 1,260 Climbing Indianapolis Center
06:25PM 37.9078 -86.4561 227° Southwest 355 409 15,000 1,260 Climbing Indianapolis Center
06:26PM 37.8386 -86.5494 227° Southwest 360 414 16,400 1,200 Climbing Indianapolis Center
06:27PM 37.7697 -86.6431 227° Southwest 360 414 17,600 1,140 Climbing Indianapolis Center
06:28PM 37.6975 -86.7386 226° Southwest 369 425 18,800 1,140 Climbing Indianapolis Center
06:30PM 37.6054 -86.8560 228° Southwest  Level Estimated
06:30PM 37.5353 -86.9572 228° Southwest 382 440 21,400  Level Memphis Center
06:31PM 37.4586 -87.0547 225° Southwest 382 440 22,600 1,140 Climbing Memphis Center
06:32PM 37.3844 -87.1569 228° Southwest 382 440 23,700 900 Climbing Memphis Center
06:33PM 37.3078 -87.2617 227° Southwest 388 447 24,500 840 Climbing Memphis Center
06:34PM 37.2289 -87.3611 225° Southwest 401 461 25,400 960 Climbing Memphis Center
06:35PM 37.1503 -87.4656 227° Southwest 411 473 26,500 1,080 Climbing Memphis Center
06:36PM 37.0714 -87.5672 226° Southwest 405 466 27,600 1,200 Climbing Memphis Center
06:37PM 36.9944 -87.6739 228° Southwest 405 466 29,000 1,500 Climbing Memphis Center
06:38PM 36.9092 -87.7778 224° Southwest 405 466 30,600 1,560 Climbing Memphis Center
06:39PM 36.8361 -87.8736 226° Southwest 393 452 32,200 1,140 Climbing Memphis Center
06:42PM 36.6731 -88.0828 226° Southwest 371 427 34,400 900 Climbing Indianapolis Center
06:42PM 36.6308 -88.1436 229° Southwest 376 433 35,000 780 Climbing Memphis Center
06:43PM 36.5614 -88.2308 225° Southwest 376 433 35,800 480 Climbing Memphis Center
06:44PM 36.4900 -88.3203 225° Southwest 371 427 36,000 60 Climbing Memphis Center
06:45PM 36.4144 -88.4178 226° Southwest 378 435 36,000  Level Memphis Center
06:46PM 36.3344 -88.5150 224° Southwest 389 448 36,000  Level Memphis Center
06:47PM 36.2528 -88.6197 226° Southwest 409 471 36,000  Level Memphis Center
06:48PM 36.1667 -88.7294 226° Southwest 426 490 36,000  Level Memphis Center
06:49PM 36.0764 -88.8392 225° Southwest 442 509 36,000  Level Memphis Center
06:50PM 35.9775 -88.9592 224° Southwest 447 514 36,000  Level Memphis Center
06:51PM 35.8872 -89.0733 226° Southwest 459 528 36,000  Level Memphis Center
06:52PM 35.7964 -89.1872 225° Southwest 464 534 36,000  Level Memphis Center
06:53PM 35.7058 -89.3011 226° Southwest 464 534 36,000  Level Memphis Center
06:54PM 35.6211 -89.4094 226° Southwest 452 520 36,000  Level Memphis Center
06:55PM 35.5342 -89.5178 225° Southwest 452 520 36,000  Level Memphis Center
06:56PM 35.4453 -89.6256 225° Southwest 452 520 36,000  Level Memphis Center
06:57PM 35.3561 -89.7358 225° Southwest 452 520 36,000  Level Memphis Center
06:58PM 35.2669 -89.8433 225° Southwest 452 520 36,000  Level Memphis Center
07:00PM 35.1832 -89.9433 224° Southwest  Level FlightAware Approximate
07:01PM 34.9967 -90.1719 224° Southwest 462 532 36,000  Level Memphis Center
07:02PM 34.9092 -90.2811 226° Southwest 462 532 36,000  Level Memphis Center
07:03PM 34.8175 -90.3875 224° Southwest 457 526 36,000  Level Memphis Center
07:04PM 34.7403 -90.4783 224° Southwest 452 520 36,000  Level Memphis Center
07:05PM 34.6525 -90.5844 225° Southwest 452 520 36,000  Level Memphis Center
07:06PM 34.5689 -90.6900 226° Southwest 441 507 36,000  Level Memphis Center
07:07PM 34.7187 -90.4919 224° Southwest  Level FlightAware Approximate
07:07PM 34.4892 -90.8006 229° Southwest 441 507 36,000  Level Memphis Center
07:08PM 34.3844 -90.8831 213° Southwest 448 516 36,000  Level Memphis Center
07:09PM 34.2736 -90.9706 213° Southwest 466 536 36,000  Level Memphis Center
07:10PM 34.1667 -91.0475 211° Southwest 466 536 36,000  Level Memphis Center
07:11PM 34.0556 -91.1369 214° Southwest 461 531 36,000  Level Memphis Center
07:12PM 33.9506 -91.2161 212° Southwest 443 510 36,000  Level Memphis Center
07:13PM 33.8478 -91.2950 213° Southwest 443 510 36,000  Level Memphis Center
07:14PM 33.7386 -91.3739 211° Southwest 443 510 36,000  Level Memphis Center
07:16PM 33.5931 -91.4867 213° Southwest 443 510 36,000  Level Fort Worth Center
07:17PM 33.4883 -91.5683 213° Southwest 443 510 36,000  Level Fort Worth Center
07:18PM 33.3714 -91.6531 211° Southwest 443 510 36,000  Level Fort Worth Center
07:19PM 33.2664 -91.7294 211° Southwest 448 516 36,000  Level Fort Worth Center
07:20PM 33.1633 -91.8081 213° Southwest 443 510 36,000  Level Fort Worth Center
07:21PM 33.0564 -91.8867 212° Southwest 443 510 36,000  Level Fort Worth Center
07:22PM 32.9492 -91.9650 212° Southwest 449 517 36,000  Level Fort Worth Center
07:23PM 32.8458 -92.0406 212° Southwest 449 517 36,000  Level Fort Worth Center
07:24PM 32.7447 -92.1158 212° Southwest 444 511 36,000  Level Fort Worth Center
07:25PM 32.6517 -92.1856 212° Southwest 437 503 36,000  Level Fort Worth Center
07:26PM 32.4808 -92.3067 211° Southwest 420 483 36,000  Level Houston Center
07:28PM 32.3831 -92.3806 213° Southwest 418 481 36,000  Level Houston Center
07:29PM 32.2831 -92.4522 211° Southwest 420 483 36,000  Level Houston Center
07:30PM 32.1611 -92.5406 212° Southwest 428 493 36,000  Level Houston Center
07:31PM 32.0592 -92.6133 211° Southwest 428 493 36,000 -60 Level Houston Center
07:32PM 31.9592 -92.6892 213° Southwest 428 493 35,900  Descending Houston Center
07:33PM 31.8694 -92.7758 219° Southwest 419 482 36,000  Climbing Houston Center
07:34PM 31.7814 -92.8625 220° Southwest 414 476 36,000  Level Houston Center
07:35PM 31.6947 -92.9475 220° Southwest 407 468 36,000  Level Houston Center
07:36PM 31.5906 -93.0464 219° Southwest 402 463 36,000  Level Houston Center
07:37PM 31.5042 -93.1294 219° Southwest 402 463 36,000  Level Houston Center
07:38PM 31.4150 -93.2147 219° Southwest 412 474 36,000  Level Houston Center
07:39PM 31.3183 -93.3067 219° Southwest 420 483 36,000  Level Houston Center
07:40PM 31.2347 -93.3878 220° Southwest 420 483 36,000 -540 Level Houston Center
07:41PM 31.1447 -93.4725 219° Southwest 417 480 35,000 -1,680 Descending Houston Center
07:42PM 31.0550 -93.5581 219° Southwest 417 480 32,600 -2,580 Descending Houston Center
07:43PM 30.9456 -93.6628 219° Southwest 424 488 29,700 -2,640 Descending Houston Center
07:44PM 30.8525 -93.7508 219° Southwest 431 496 27,300 -2,280 Descending Houston Center
07:45PM 30.7547 -93.8428 219° Southwest 450 518 25,100 -2,280 Descending Houston Center
07:46PM 30.6603 -93.9314 219° Southwest 443 510 22,700 -2,340 Descending Houston Center
07:47PM 30.5703 -94.0167 219° Southwest 425 489 20,300 -2,640 Descending Houston Center
07:47PM 30.5231 -94.0594 218° Southwest 417 480 19,200 -2,580 Descending Houston Center
07:48PM 30.4614 -94.1183 219° Southwest 420 483 17,700 -1,860 Descending Houston Center
07:48PM 30.4364 -94.1392 216° Southwest 417 480 17,300 -1,980 Descending Houston Center
07:49PM 30.3733 -94.1997 220° Southwest 410 472 15,700 -2,280 Descending Houston Center
07:49PM 30.3464 -94.2264 221° Southwest 404 465 15,000 -2,160 Descending Houston Center
07:50PM 30.2892 -94.2781 218° Southwest 394 453 13,500 -2,220 Descending Houston Center
07:50PM 30.2578 -94.3058 217° Southwest 381 438 12,800 -1,500 Descending Houston Center
07:51PM 30.2092 -94.3536 220° Southwest 376 433 12,000 -840 Descending Houston Center
07:51PM 30.1864 -94.3928 236° Southwest 364 419 12,000 -600 Level Houston Center
07:52PM 30.1656 -94.4517 248° West 343 395 11,400 -1,200 Descending Houston Center
07:52PM 30.1517 -94.4892 247° West 313 360 10,800 -1,500 Descending Houston Center
07:53PM 30.1331 -94.5394 247° West 306 352 9,900 -1,380 Descending Houston Center
07:54PM 30.1003 -94.6369 249° West 274 315 8,300 -900 Descending Houston Center
07:56PM 30.0775 -94.7428 256° West 263 303 7,900 -480 Descending Houston Center
07:56PM 30.0633 -94.8003 254° West 261 300 7,400 -720 Descending Houston Center
07:57PM 30.0444 -94.8803 255° West 258 297 6,600 -900 Descending Houston Center
07:58PM 30.0286 -94.9614 257° West 261 300 5,600 -1,020 Descending Houston Center
07:59PM 30.0131 -95.0400 257° West 254 292 4,500 -1,260 Descending Houston Center
08:00PM 29.9967 -95.1297 258° West 243 280 3,100 -1,140 Descending Houston Center
08:02PM 29.9919 -95.2033 266° West 236 272 2,200 -900 Descending Houston Center
08:03PM 29.9931 -95.2722 271° West 169 194 1,200 -840 Descending Houston Center
08:04PM 29.9925 -95.3078 269° West 168 193 500 -480 Descending Houston Center
08:05PM 29.9917 -95.3503 269° West 161 185 300 -240 Descending Houston Center